Airfield :
LOGIN :

Register | Disclaimer

   EN    FR    IT 

 










Legend :    VFR   Marginal VFR   IFR   Intensive IFR   Very Intensive IFR
Visi :
Ceiling :
>= 8 km
>= 3000ft
5 to 8 km
1000 to 3000 ft
1500m to 5 km
500 to 1000 ft
800 to 1500m
200 to 500 ft
< 800m
< 200 ft
Symbols :   Thunderstorms  Fog  Heavy snow  Heavy precipitations  Wind > 20 kt
SIGMETs :     Misc.  Thunderstorms  Icing  Turbulence  Mountain Waves  Volcanic Ashes






- Airport Elevation : 1066 ft


EGOM - RAF Spadeadam

CURRENT METAR :
  • 230220Z AUTO 27006KT 0050 FG OVC001/// 13/13 Q1013

EXPIRED METARs :
  • 230150Z AUTO 27005KT 0050 FG OVC001/// 13/13 Q1013
  • 230120Z AUTO 26006KT 0400 FG OVC001/// 13/13 Q1013
  • 230050Z AUTO 25006KT 0200 -RA OVC001/// 13/13 Q1013
  • 230020Z AUTO 28006KT 2700 -RA OVC001/// 13/13 Q1013
  • 222350Z AUTO 28008KT 2000 FG OVC001/// 13/13 Q1013
  • 222320Z AUTO 28011KT 0100 FG OVC001/// 13/13 Q1012
  • 222250Z AUTO 29007KT 2100 RA OVC001/// 13/13 Q1012
  • 222220Z AUTO 24007KT 0800 +RA OVC001/// 13/13 Q1012
  • 222150Z AUTO 24007KT 1000 RA OVC001/// 13/13 Q1012

Expired Forecast.



MET'MAP, your aeronautical weather chart ! - Copyright ORBIFLY December 2007 - Disclaimer

ORBIFLY MET'MAP TEAM :

Programming & Development : Alexandra Zaïnal
Original concept : Baudouin d'Aumeries
Technical & hardware support : Manuel Goepfert
Assistance : Marc-Olivier Méhu




SOURCES & CREDITS :

   NOAA